createdAt,value
2019-03-30T00:02:00.798Z,92.30
2019-03-30T00:06:10.929Z,92.30
2019-03-30T00:10:21.544Z,92.40
2019-03-30T00:14:32.726Z,92.50
2019-03-30T00:18:43.793Z,92.60
2019-03-30T00:22:54.806Z,93.10
2019-03-30T00:27:06.176Z,93.30
2019-03-30T00:31:18.961Z,93.50
2019-03-30T00:35:29.996Z,93.40
2019-03-30T00:39:41.402Z,93.30
2019-03-30T00:43:52.466Z,93.40
2019-03-30T00:48:03.866Z,93.40
2019-03-30T00:52:14.950Z,93.50
2019-03-30T00:56:25.970Z,93.50
2019-03-30T01:00:36.999Z,93.60
2019-03-30T01:04:48.097Z,94.20
2019-03-30T01:08:58.172Z,94.70
2019-03-30T01:13:10.952Z,94.90
2019-03-30T01:17:22.096Z,95.20
2019-03-30T01:21:32.823Z,95.30
2019-03-30T01:25:43.940Z,95.30
2019-03-30T01:29:54.709Z,95.50
2019-03-30T01:34:05.927Z,95.50
2019-03-30T01:38:17.017Z,95.40
2019-03-30T01:42:29.311Z,95.30
2019-03-30T01:46:41.911Z,95.30
2019-03-30T01:50:53.077Z,95.40
2019-03-30T01:55:05.712Z,95.40
2019-03-30T01:59:18.017Z,95.50
2019-03-30T02:03:29.039Z,95.50
2019-03-30T02:07:40.224Z,95.50
2019-03-30T02:11:52.555Z,95.50
2019-03-30T02:16:04.186Z,95.50
2019-03-30T02:20:38.121Z,96.00
2019-03-30T02:24:49.173Z,95.50
2019-03-30T02:29:00.287Z,95.80
2019-03-30T02:33:11.400Z,95.40
2019-03-30T02:37:22.447Z,95.70
2019-03-30T02:41:32.592Z,95.20
2019-03-30T02:45:43.601Z,95.10
2019-03-30T02:49:55.025Z,95.00
2019-03-30T02:54:06.338Z,94.90
2019-03-30T02:58:17.731Z,94.90
2019-03-30T03:02:28.373Z,94.80
2019-03-30T03:06:39.382Z,94.60
2019-03-30T03:10:50.421Z,94.60
2019-03-30T03:15:01.700Z,94.50
2019-03-30T03:19:13.026Z,94.50
2019-03-30T03:23:24.972Z,94.40
2019-03-30T03:27:36.284Z,94.30
2019-03-30T03:31:47.658Z,94.20
2019-03-30T03:35:59.310Z,94.20
2019-03-30T03:40:11.040Z,94.30
2019-03-30T03:44:22.307Z,94.30
2019-03-30T03:48:33.400Z,94.30
2019-03-30T03:52:44.867Z,94.30
2019-03-30T03:56:57.756Z,94.40
2019-03-30T04:01:10.599Z,94.40
2019-03-30T04:05:24.131Z,94.80
2019-03-30T04:09:36.521Z,94.50
2019-03-30T04:13:50.911Z,94.50
2019-03-30T04:18:02.412Z,94.60
2019-03-30T04:22:15.244Z,94.50
2019-03-30T04:26:26.316Z,94.60
2019-03-30T04:30:37.384Z,94.60
2019-03-30T04:34:48.529Z,94.60
2019-03-30T04:38:59.806Z,94.60
2019-03-30T04:43:10.848Z,94.50
2019-03-30T04:47:21.995Z,94.60
2019-03-30T04:51:33.106Z,94.70
2019-03-30T04:55:43.888Z,94.70
2019-03-30T04:59:54.943Z,94.80
2019-03-30T05:04:06.288Z,94.80
2019-03-30T05:08:17.338Z,94.70
2019-03-30T05:12:28.556Z,94.70
2019-03-30T05:16:39.681Z,94.60
2019-03-30T05:20:52.725Z,94.20
2019-03-30T05:25:04.695Z,93.70
2019-03-30T05:29:15.855Z,93.10
2019-03-30T05:33:26.966Z,92.90
2019-03-30T05:37:38.179Z,92.20
2019-03-30T05:41:50.908Z,91.70
2019-03-30T05:46:02.163Z,91.30
2019-03-30T05:50:15.401Z,90.20
2019-03-30T05:54:26.577Z,89.90
2019-03-30T05:58:38.048Z,89.30
2019-03-30T06:02:48.938Z,89.70
2019-03-30T06:07:00.035Z,90.00
2019-03-30T06:11:11.478Z,90.00
2019-03-30T06:15:22.657Z,90.10
2019-03-30T06:19:33.447Z,90.30
2019-03-30T06:23:44.588Z,89.80
2019-03-30T06:27:55.814Z,87.10
2019-03-30T06:32:06.862Z,84.40
2019-03-30T06:36:17.986Z,81.90
2019-03-30T06:40:29.088Z,79.70
2019-03-30T06:44:40.294Z,78.50
2019-03-30T06:48:51.358Z,77.90
2019-03-30T06:53:02.543Z,76.80
2019-03-30T06:57:13.651Z,75.90
2019-03-30T07:01:26.316Z,74.20
2019-03-30T07:05:40.913Z,73.30
2019-03-30T07:09:53.700Z,72.20
2019-03-30T07:14:04.960Z,70.90
2019-03-30T07:18:16.956Z,69.10
2019-03-30T07:22:28.156Z,67.70
2019-03-30T07:26:39.314Z,66.60
2019-03-30T07:30:54.575Z,66.40
2019-03-30T07:35:07.446Z,65.40
2019-03-30T07:39:18.459Z,64.00
2019-03-30T07:43:29.922Z,62.90
2019-03-30T07:47:41.032Z,62.60
2019-03-30T07:51:52.129Z,62.50
2019-03-30T07:56:08.772Z,61.70
2019-03-30T08:00:16.310Z,61.00
2019-03-30T08:04:28.835Z,59.00
2019-03-30T08:08:39.062Z,58.00
2019-03-30T08:12:51.737Z,58.00
2019-03-30T08:17:03.027Z,57.50
2019-03-30T08:21:14.104Z,57.20
2019-03-30T08:25:25.117Z,57.30
2019-03-30T08:29:35.216Z,57.40
2019-03-30T08:33:47.943Z,57.00
2019-03-30T08:37:57.918Z,57.10
2019-03-30T08:42:08.948Z,56.60
2019-03-30T08:46:20.155Z,55.80
2019-03-30T08:50:31.465Z,54.90
2019-03-30T08:54:43.462Z,54.30
2019-03-30T08:58:54.649Z,55.10
2019-03-30T09:03:05.889Z,53.20
2019-03-30T09:07:17.088Z,53.00
2019-03-30T09:11:29.825Z,52.50
2019-03-30T09:15:42.491Z,51.60
2019-03-30T09:19:55.091Z,50.90
2019-03-30T09:24:09.951Z,50.50
2019-03-30T09:28:19.260Z,50.10
2019-03-30T09:32:30.420Z,49.90
2019-03-30T09:36:41.626Z,49.00
2019-03-30T09:40:53.516Z,47.80
2019-03-30T09:45:08.602Z,46.40
2019-03-30T09:49:19.719Z,46.80
2019-03-30T09:53:30.879Z,47.30
2019-03-30T09:57:41.894Z,45.20
2019-03-30T10:01:53.054Z,45.60
2019-03-30T10:06:04.215Z,43.70
2019-03-30T10:10:15.351Z,43.80
2019-03-30T10:14:26.357Z,44.20
2019-03-30T10:18:37.887Z,43.10
2019-03-30T10:22:49.069Z,40.60
2019-03-30T10:27:01.093Z,41.40
2019-03-30T10:31:12.407Z,40.50
2019-03-30T10:35:23.676Z,38.20
2019-03-30T10:39:34.762Z,38.50
2019-03-30T10:43:45.854Z,38.40
2019-03-30T10:47:57.270Z,39.30
2019-03-30T10:52:08.440Z,40.10
2019-03-30T10:56:19.646Z,39.00
2019-03-30T11:00:36.227Z,39.80
2019-03-30T11:04:47.287Z,38.10
2019-03-30T11:08:57.922Z,39.20
2019-03-30T11:13:10.464Z,37.80
2019-03-30T11:17:21.609Z,41.00
2019-03-30T11:21:32.847Z,43.20
2019-03-30T11:25:44.022Z,43.80
2019-03-30T11:29:55.044Z,44.70
2019-03-30T11:34:07.346Z,44.70
2019-03-30T11:38:18.510Z,44.10
2019-03-30T11:42:29.713Z,42.10
2019-03-30T11:46:40.966Z,40.00
2019-03-30T11:50:52.416Z,38.70
2019-03-30T11:55:04.245Z,36.50
2019-03-30T11:59:15.302Z,35.60
2019-03-30T12:03:26.466Z,34.50
2019-03-30T12:07:37.183Z,33.20
2019-03-30T12:11:49.129Z,31.70
2019-03-30T12:15:59.913Z,32.10
2019-03-30T12:20:12.596Z,33.20
2019-03-30T12:24:23.877Z,33.70
2019-03-30T12:28:34.982Z,37.40
2019-03-30T12:32:46.353Z,39.80
2019-03-30T12:36:58.872Z,41.40
2019-03-30T12:41:10.168Z,42.20
2019-03-30T12:45:22.975Z,41.20
2019-03-30T12:49:37.506Z,40.50
2019-03-30T12:53:50.558Z,40.50
2019-03-30T12:58:01.497Z,40.50
2019-03-30T13:02:12.824Z,41.00
2019-03-30T13:06:25.376Z,41.00
2019-03-30T13:10:36.595Z,40.30
2019-03-30T13:14:49.978Z,40.80
2019-03-30T13:19:01.915Z,41.40
2019-03-30T13:23:13.182Z,42.50
2019-03-30T13:27:24.275Z,42.80
2019-03-30T13:31:34.524Z,42.10
2019-03-30T13:35:46.883Z,41.30
2019-03-30T13:39:58.026Z,41.60
2019-03-30T13:44:09.645Z,42.20
2019-03-30T13:48:20.748Z,42.50
2019-03-30T13:52:32.275Z,42.60
2019-03-30T13:56:43.421Z,42.20
2019-03-30T14:00:59.489Z,42.90
2019-03-30T14:05:12.380Z,42.90
2019-03-30T14:09:23.819Z,42.40
2019-03-30T14:13:38.230Z,42.90
2019-03-30T14:17:49.415Z,43.30
2019-03-30T14:22:00.041Z,42.30
2019-03-30T14:26:11.120Z,41.70
2019-03-30T14:30:22.322Z,42.10
2019-03-30T14:34:33.455Z,42.30
2019-03-30T14:38:44.821Z,41.60
2019-03-30T14:42:55.829Z,41.90
2019-03-30T14:47:05.882Z,41.20
2019-03-30T14:51:16.937Z,41.00
2019-03-30T14:55:28.658Z,41.10
2019-03-30T14:59:39.706Z,40.30
2019-03-30T15:03:50.881Z,40.00
2019-03-30T15:08:02.069Z,40.00
2019-03-30T15:12:13.174Z,37.50
2019-03-30T15:16:24.222Z,35.90
2019-03-30T15:20:35.458Z,36.70
2019-03-30T15:24:46.758Z,36.50
2019-03-30T15:28:57.919Z,36.90
2019-03-30T15:33:09.600Z,36.70
2019-03-30T15:37:22.667Z,37.50
2019-03-30T15:41:33.703Z,37.50
2019-03-30T15:45:44.820Z,38.80
2019-03-30T15:49:55.897Z,38.70
2019-03-30T15:54:05.978Z,38.70
2019-03-30T15:58:16.404Z,38.80
2019-03-30T16:02:28.142Z,38.10
2019-03-30T16:06:39.253Z,38.60
2019-03-30T16:10:52.415Z,39.50
2019-03-30T16:15:05.253Z,39.70
2019-03-30T16:19:16.543Z,41.50
2019-03-30T16:23:27.564Z,41.00
2019-03-30T16:27:40.094Z,40.90
2019-03-30T16:31:51.355Z,41.30
2019-03-30T16:36:02.875Z,41.60
2019-03-30T16:40:15.027Z,41.80
2019-03-30T16:44:25.692Z,42.60
2019-03-30T16:48:37.206Z,41.90
2019-03-30T16:52:48.631Z,42.20
2019-03-30T16:56:58.869Z,42.50
2019-03-30T17:01:10.094Z,42.90
2019-03-30T17:05:21.375Z,43.10
2019-03-30T17:09:32.611Z,43.10
2019-03-30T17:13:43.697Z,43.30
2019-03-30T17:17:54.944Z,43.80
2019-03-30T17:22:06.055Z,44.40
2019-03-30T17:26:17.435Z,44.70
2019-03-30T17:30:28.496Z,45.00
2019-03-30T17:34:39.823Z,45.50
2019-03-30T17:38:50.886Z,45.70
2019-03-30T17:43:02.079Z,45.90
2019-03-30T17:47:13.113Z,46.20
2019-03-30T17:51:24.225Z,46.60
2019-03-30T17:55:35.339Z,46.60
2019-03-30T17:59:46.439Z,47.00
2019-03-30T18:03:57.551Z,47.40
2019-03-30T18:08:09.857Z,47.70
2019-03-30T18:12:20.957Z,47.80
2019-03-30T18:16:32.130Z,47.90
2019-03-30T18:20:43.379Z,48.10
2019-03-30T18:24:54.421Z,48.10
2019-03-30T18:29:05.541Z,48.50
2019-03-30T18:33:16.741Z,48.80
2019-03-30T18:37:29.103Z,49.10
2019-03-30T18:41:40.337Z,49.30
2019-03-30T18:45:51.503Z,49.50
2019-03-30T18:50:02.645Z,49.70
2019-03-30T18:54:14.434Z,50.20
2019-03-30T18:58:40.714Z,50.40
2019-03-30T19:02:39.235Z,50.70
2019-03-30T19:06:50.405Z,50.90
2019-03-30T19:11:01.468Z,51.30
2019-03-30T19:15:12.540Z,51.60
2019-03-30T19:19:23.622Z,51.80
2019-03-30T19:23:34.681Z,52.00
2019-03-30T19:27:47.279Z,52.30
2019-03-30T19:31:58.600Z,52.70
2019-03-30T19:36:10.154Z,52.70
2019-03-30T19:40:21.904Z,53.20
2019-03-30T19:44:33.104Z,53.50
2019-03-30T19:48:44.199Z,53.90
2019-03-30T19:52:55.635Z,54.30
2019-03-30T19:57:06.840Z,54.40
2019-03-30T20:01:18.158Z,54.40
2019-03-30T20:05:29.467Z,54.70
2019-03-30T20:09:40.949Z,55.00
2019-03-30T20:13:53.083Z,55.00
2019-03-30T20:18:04.317Z,55.60
2019-03-30T20:22:16.254Z,54.90
2019-03-30T20:26:28.350Z,55.00
2019-03-30T20:30:39.394Z,55.30
2019-03-30T20:34:50.797Z,55.60
2019-03-30T20:39:08.236Z,55.80
2019-03-30T20:43:19.545Z,56.10
2019-03-30T20:47:30.601Z,56.40
2019-03-30T20:51:41.722Z,56.50
2019-03-30T20:55:54.179Z,56.80
2019-03-30T21:00:09.184Z,57.00
2019-03-30T21:04:20.213Z,57.30
2019-03-30T21:08:31.268Z,57.50
2019-03-30T21:12:43.861Z,57.80
2019-03-30T21:16:55.249Z,58.10
2019-03-30T21:21:09.181Z,58.40
2019-03-30T21:25:19.335Z,58.80
2019-03-30T21:29:30.457Z,59.00
2019-03-30T21:33:44.406Z,59.30
2019-03-30T21:37:58.459Z,59.70
2019-03-30T21:42:08.319Z,60.10
2019-03-30T21:46:19.414Z,60.70
2019-03-30T21:50:30.567Z,61.20
2019-03-30T21:54:41.987Z,61.50
2019-03-30T21:58:53.047Z,61.90
2019-03-30T22:03:04.929Z,63.50
2019-03-30T22:07:16.371Z,64.40
2019-03-30T22:11:43.682Z,64.40
2019-03-30T22:15:53.474Z,63.80
2019-03-30T22:20:03.448Z,63.50
2019-03-30T22:24:15.191Z,63.20
2019-03-30T22:28:25.314Z,62.90
2019-03-30T22:32:36.747Z,63.00
2019-03-30T22:36:48.243Z,63.00
2019-03-30T22:40:58.248Z,63.80
2019-03-30T22:45:08.835Z,63.10
2019-03-30T22:49:21.539Z,63.10
2019-03-30T22:53:31.464Z,63.20
2019-03-30T22:57:43.062Z,63.30
2019-03-30T23:01:53.009Z,63.40
2019-03-30T23:06:02.988Z,63.80
2019-03-30T23:10:13.455Z,64.80
2019-03-30T23:14:24.585Z,64.10
2019-03-30T23:18:34.570Z,64.40
2019-03-30T23:22:44.525Z,64.60
2019-03-30T23:26:54.917Z,64.70
2019-03-30T23:31:06.367Z,64.90
2019-03-30T23:35:16.462Z,65.10
2019-03-30T23:39:26.412Z,65.10
2019-03-30T23:43:36.667Z,65.20
2019-03-30T23:47:47.717Z,65.40
2019-03-30T23:51:57.577Z,65.50
2019-03-30T23:56:17.729Z,65.70
